EDW36DC LSZH-LIEO
Flight info
| Callsign | EDW36DC |
|---|---|
| Flight time | N/A |
| Altitude | 36000 |
| Route | VEBIT4N/32 VEBIT T53 GERSA DCT SOSON DCT ODINA DCT MONEB/N0447F370 DCT SPEZI DCT BEGUD DCT BATOX |
| Aircraft | A320/M-SDE3FGHIRWY/LB1 |
Departure
| Time | N/A |
|---|---|
| Airport | Zürich Airport (LSZH) |
Arrival
| Time | 2026-04-28 21:01 |
|---|---|
| Airport | Olbia Costa Smeralda Airport (LIEO) |
| Time | Latitude | Longitude | Altitude | Speed | Heading |
|---|---|---|---|---|---|
| 2026-04-28 20:31 | 42.10766 | 9.99300 | 36073 ft | 454 kts | 175° |
| 2026-04-28 20:31 | 42.04542 | 10.00437 | 36070 ft | 454 kts | 175° |
| 2026-04-28 20:32 | 41.98290 | 10.01577 | 35537 ft | 453 kts | 175° |
| 2026-04-28 20:32 | 41.95126 | 10.02158 | 34775 ft | 454 kts | 174° |
| 2026-04-28 20:32 | 41.92037 | 10.02726 | 34067 ft | 454 kts | 174° |
| 2026-04-28 20:32 | 41.88905 | 10.03307 | 33397 ft | 455 kts | 174° |
| 2026-04-28 20:33 | 41.85767 | 10.03896 | 32866 ft | 456 kts | 174° |
| 2026-04-28 20:33 | 41.82618 | 10.04489 | 32339 ft | 458 kts | 174° |
| 2026-04-28 20:33 | 41.79462 | 10.05080 | 31825 ft | 459 kts | 174° |
| 2026-04-28 20:33 | 41.76295 | 10.05668 | 31124 ft | 459 kts | 174° |
| 2026-04-28 20:34 | 41.73127 | 10.06250 | 30220 ft | 461 kts | 174° |
| 2026-04-28 20:34 | 41.69944 | 10.06826 | 29161 ft | 463 kts | 174° |
| 2026-04-28 20:34 | 41.66749 | 10.07406 | 28091 ft | 464 kts | 174° |
| 2026-04-28 20:34 | 41.63544 | 10.07996 | 27023 ft | 466 kts | 174° |
| 2026-04-28 20:35 | 41.60332 | 10.08596 | 26117 ft | 464 kts | 174° |
| 2026-04-28 20:35 | 41.57201 | 10.09193 | 25964 ft | 445 kts | 174° |
| 2026-04-28 20:35 | 41.54197 | 10.09773 | 25828 ft | 428 kts | 174° |
| 2026-04-28 20:35 | 41.51310 | 10.10332 | 25703 ft | 411 kts | 174° |
| 2026-04-28 20:36 | 41.48532 | 10.10869 | 25579 ft | 396 kts | 174° |
| 2026-04-28 20:36 | 41.45858 | 10.11393 | 25451 ft | 381 kts | 174° |
| 2026-04-28 20:36 | 41.43276 | 10.11903 | 25327 ft | 368 kts | 174° |
| 2026-04-28 20:36 | 41.40774 | 10.12403 | 25033 ft | 361 kts | 174° |
| 2026-04-28 20:37 | 41.38301 | 10.12900 | 24655 ft | 357 kts | 174° |
| 2026-04-28 20:37 | 41.35854 | 10.13395 | 24219 ft | 354 kts | 174° |
| 2026-04-28 20:37 | 41.33431 | 10.13889 | 23937 ft | 348 kts | 174° |
| 2026-04-28 20:37 | 41.31080 | 10.14372 | 23818 ft | 336 kts | 174° |
| 2026-04-28 20:38 | 41.28803 | 10.14836 | 23628 ft | 327 kts | 174° |
| 2026-04-28 20:38 | 41.26567 | 10.15294 | 23273 ft | 323 kts | 174° |
| 2026-04-28 20:38 | 41.24353 | 10.15747 | 22881 ft | 321 kts | 174° |
| 2026-04-28 20:38 | 41.22154 | 10.16201 | 22492 ft | 319 kts | 174° |
| 2026-04-28 20:39 | 41.19964 | 10.16648 | 22107 ft | 317 kts | 174° |
| 2026-04-28 20:39 | 41.17790 | 10.17095 | 21740 ft | 315 kts | 174° |
| 2026-04-28 20:39 | 41.15628 | 10.17540 | 21378 ft | 314 kts | 174° |
| 2026-04-28 20:39 | 41.13479 | 10.17985 | 21025 ft | 312 kts | 174° |
| 2026-04-28 20:40 | 41.11342 | 10.18431 | 20674 ft | 310 kts | 173° |
| 2026-04-28 20:40 | 41.09213 | 10.18863 | 20320 ft | 309 kts | 174° |
| 2026-04-28 20:40 | 41.07092 | 10.19255 | 19989 ft | 306 kts | 180° |
| 2026-04-28 20:40 | 41.05016 | 10.18939 | 19681 ft | 298 kts | 200° |
| 2026-04-28 20:41 | 41.03224 | 10.17696 | 19553 ft | 287 kts | 220° |
| 2026-04-28 20:41 | 41.01918 | 10.15782 | 19433 ft | 276 kts | 239° |
| 2026-04-28 20:41 | 41.01174 | 10.13482 | 19249 ft | 270 kts | 252° |
| 2026-04-28 20:41 | 41.00605 | 10.11130 | 18998 ft | 267 kts | 252° |
| 2026-04-28 20:42 | 41.00041 | 10.08803 | 18550 ft | 265 kts | 252° |
| 2026-04-28 20:42 | 40.99476 | 10.06486 | 18057 ft | 264 kts | 252° |
| 2026-04-28 20:42 | 40.98912 | 10.04182 | 17532 ft | 262 kts | 251° |
| 2026-04-28 20:42 | 40.98349 | 10.01889 | 17028 ft | 262 kts | 251° |
| 2026-04-28 20:43 | 40.97788 | 9.99617 | 16579 ft | 258 kts | 251° |
| 2026-04-28 20:43 | 40.97233 | 9.97363 | 16113 ft | 257 kts | 251° |
| 2026-04-28 20:43 | 40.96685 | 9.95137 | 15714 ft | 252 kts | 251° |
| 2026-04-28 20:43 | 40.96143 | 9.92933 | 15247 ft | 252 kts | 251° |
| 2026-04-28 20:44 | 40.95568 | 9.90743 | 14796 ft | 251 kts | 246° |
| 2026-04-28 20:44 | 40.94787 | 9.88680 | 14407 ft | 252 kts | 238° |
| 2026-04-28 20:44 | 40.93813 | 9.86755 | 14172 ft | 251 kts | 235° |
| 2026-04-28 20:44 | 40.92826 | 9.84859 | 13966 ft | 249 kts | 236° |
| 2026-04-28 20:45 | 40.91844 | 9.82967 | 13699 ft | 249 kts | 236° |
| 2026-04-28 20:45 | 40.90867 | 9.81088 | 13444 ft | 247 kts | 237° |
| 2026-04-28 20:45 | 40.89895 | 9.79219 | 13161 ft | 247 kts | 236° |
| 2026-04-28 20:45 | 40.88924 | 9.77352 | 12890 ft | 246 kts | 236° |
| 2026-04-28 20:46 | 40.87958 | 9.75492 | 12595 ft | 246 kts | 236° |
| 2026-04-28 20:46 | 40.86990 | 9.73633 | 12328 ft | 245 kts | 236° |
| 2026-04-28 20:46 | 40.86032 | 9.71792 | 12094 ft | 242 kts | 236° |
| 2026-04-28 20:46 | 40.85078 | 9.69964 | 11838 ft | 240 kts | 236° |
| 2026-04-28 20:47 | 40.84134 | 9.68155 | 11573 ft | 239 kts | 236° |
| 2026-04-28 20:47 | 40.83205 | 9.66376 | 11287 ft | 238 kts | 236° |
| 2026-04-28 20:47 | 40.82254 | 9.64557 | 11022 ft | 237 kts | 236° |
| 2026-04-28 20:47 | 40.81318 | 9.62768 | 10727 ft | 236 kts | 235° |
| 2026-04-28 20:48 | 40.80383 | 9.60986 | 10447 ft | 236 kts | 235° |
| 2026-04-28 20:48 | 40.79455 | 9.59213 | 10193 ft | 234 kts | 235° |
| 2026-04-28 20:48 | 40.78535 | 9.57452 | 9910 ft | 232 kts | 235° |
| 2026-04-28 20:48 | 40.77635 | 9.55727 | 9636 ft | 230 kts | 235° |
| 2026-04-28 20:49 | 40.76715 | 9.53972 | 9320 ft | 230 kts | 234° |
| 2026-04-28 20:49 | 40.75817 | 9.52263 | 8998 ft | 229 kts | 234° |
| 2026-04-28 20:49 | 40.74909 | 9.50532 | 8737 ft | 230 kts | 234° |
| 2026-04-28 20:49 | 40.74003 | 9.48800 | 8478 ft | 229 kts | 234° |
| 2026-04-28 20:50 | 40.73096 | 9.47073 | 8232 ft | 229 kts | 234° |
| 2026-04-28 20:50 | 40.72189 | 9.45347 | 7995 ft | 229 kts | 233° |
| 2026-04-28 20:50 | 40.71285 | 9.43628 | 7743 ft | 228 kts | 233° |
| 2026-04-28 20:50 | 40.70383 | 9.41915 | 7499 ft | 227 kts | 233° |
| 2026-04-28 20:51 | 40.69481 | 9.40205 | 7259 ft | 227 kts | 233° |
| 2026-04-28 20:51 | 40.68581 | 9.38501 | 7016 ft | 226 kts | 233° |
| 2026-04-28 20:51 | 40.67685 | 9.36799 | 6776 ft | 226 kts | 233° |
| 2026-04-28 20:51 | 40.67080 | 9.35651 | 6621 ft | 226 kts | 233° |
| 2026-04-28 20:52 | 40.65896 | 9.33411 | 6291 ft | 225 kts | 233° |
| 2026-04-28 20:52 | 40.65005 | 9.31723 | 6082 ft | 224 kts | 232° |
| 2026-04-28 20:52 | 40.64115 | 9.30037 | 6023 ft | 224 kts | 233° |
| 2026-04-28 20:52 | 40.63222 | 9.28346 | 6025 ft | 225 kts | 233° |
| 2026-04-28 20:53 | 40.62162 | 9.24536 | 6030 ft | 233 kts | 275° |
| 2026-04-28 20:53 | 40.62744 | 9.22547 | 6023 ft | 238 kts | 306° |
| 2026-04-28 20:53 | 40.64028 | 9.21183 | 6016 ft | 241 kts | 337° |
| 2026-04-28 20:54 | 40.65678 | 9.20875 | 6018 ft | 242 kts | 9° |
| 2026-04-28 20:54 | 40.67338 | 9.21279 | 6019 ft | 243 kts | 12° |
| 2026-04-28 20:54 | 40.69002 | 9.21708 | 6017 ft | 244 kts | 12° |
| 2026-04-28 20:54 | 40.70667 | 9.22131 | 5956 ft | 244 kts | 11° |
| 2026-04-28 20:55 | 40.72314 | 9.22544 | 5776 ft | 238 kts | 12° |
| 2026-04-28 20:55 | 40.73885 | 9.23090 | 5636 ft | 229 kts | 26° |
| 2026-04-28 20:55 | 40.75199 | 9.24179 | 5497 ft | 221 kts | 45° |
| 2026-04-28 20:55 | 40.76177 | 9.25726 | 5213 ft | 220 kts | 57° |
| 2026-04-28 20:56 | 40.77055 | 9.27392 | 4875 ft | 220 kts | 57° |
| 2026-04-28 20:56 | 40.77917 | 9.29027 | 4548 ft | 215 kts | 57° |
| 2026-04-28 20:56 | 40.78762 | 9.30628 | 4218 ft | 210 kts | 57° |
| 2026-04-28 20:56 | 40.79572 | 9.32164 | 3903 ft | 196 kts | 57° |
| 2026-04-28 20:57 | 40.80319 | 9.33581 | 3620 ft | 181 kts | 57° |
| 2026-04-28 20:57 | 40.81013 | 9.34897 | 3364 ft | 168 kts | 57° |
| 2026-04-28 20:57 | 40.81654 | 9.36115 | 3105 ft | 155 kts | 56° |
| 2026-04-28 20:57 | 40.82257 | 9.37261 | 2866 ft | 149 kts | 57° |
| 2026-04-28 20:58 | 40.82844 | 9.38379 | 2641 ft | 147 kts | 57° |
| 2026-04-28 20:58 | 40.83425 | 9.39485 | 2412 ft | 146 kts | 57° |
| 2026-04-28 20:58 | 40.84002 | 9.40581 | 2189 ft | 145 kts | 57° |
| 2026-04-28 20:58 | 40.84574 | 9.41670 | 1969 ft | 144 kts | 56° |
| 2026-04-28 20:59 | 40.85141 | 9.42749 | 1739 ft | 143 kts | 56° |
| 2026-04-28 20:59 | 40.85704 | 9.43823 | 1519 ft | 142 kts | 55° |
| 2026-04-28 20:59 | 40.86264 | 9.44890 | 1304 ft | 141 kts | 55° |
| 2026-04-28 20:59 | 40.86820 | 9.45950 | 1085 ft | 140 kts | 55° |
| 2026-04-28 21:00 | 40.87376 | 9.47009 | 869 ft | 140 kts | 56° |
| 2026-04-28 21:00 | 40.87930 | 9.48067 | 656 ft | 140 kts | 55° |
| 2026-04-28 21:00 | 40.88484 | 9.49124 | 455 ft | 140 kts | 55° |
| 2026-04-28 21:00 | 40.89039 | 9.50185 | 219 ft | 140 kts | 55° |
| 2026-04-28 21:01 | 40.89593 | 9.51232 | 46 ft | 133 kts | 55° |
| 2026-04-28 21:01 | 40.90038 | 9.52089 | 34 ft | 78 kts | 55° |
| 2026-04-28 21:01 | 40.90291 | 9.52576 | 34 ft | 59 kts | 55° |
| 2026-04-28 21:01 | 40.90427 | 9.52832 | 31 ft | 25 kts | 55° |
| 2026-04-28 21:02 | 40.90495 | 9.52920 | 33 ft | 20 kts | 19° |
| 2026-04-28 21:02 | 40.90574 | 9.52806 | 34 ft | 16 kts | 260° |
| 2026-04-28 21:02 | 40.90546 | 9.52672 | 32 ft | 14 kts | 249° |
| 2026-04-28 21:02 | 40.90490 | 9.52562 | 34 ft | 16 kts | 236° |
| 2026-04-28 21:03 | 40.90424 | 9.52436 | 34 ft | 18 kts | 235° |
| 2026-04-28 21:03 | 40.90355 | 9.52305 | 34 ft | 15 kts | 235° |
| 2026-04-28 21:03 | 40.90290 | 9.52181 | 34 ft | 15 kts | 235° |
| 2026-04-28 21:03 | 40.90261 | 9.52126 | 34 ft | 10 kts | 235° |
| 2026-04-28 21:04 | 40.90229 | 9.52065 | 34 ft | 7 kts | 235° |
| 2026-04-28 21:04 | 40.90205 | 9.52019 | 34 ft | 6 kts | 235° |
| 2026-04-28 21:04 | 40.90194 | 9.51999 | 32 ft | 0 kts | 235° |
| 2026-04-28 21:05 | 40.90186 | 9.51981 | 34 ft | 7 kts | 239° |
| 2026-04-28 21:05 | 40.90175 | 9.51915 | 34 ft | 7 kts | 273° |
| 2026-04-28 21:05 | 40.90184 | 9.51853 | 34 ft | 9 kts | 281° |
| 2026-04-28 21:05 | 40.90214 | 9.51793 | 34 ft | 7 kts | 322° |
| 2026-04-28 21:06 | 40.90217 | 9.51754 | 34 ft | 4 kts | 248° |
| 2026-04-28 21:06 | 40.90203 | 9.51726 | 34 ft | 3 kts | 235° |
| 2026-04-28 21:06 | 40.90186 | 9.51694 | 34 ft | 4 kts | 234° |
| 2026-04-28 21:06 | 40.90181 | 9.51664 | 34 ft | 3 kts | 282° |
| 2026-04-28 21:07 | 40.90190 | 9.51648 | 33 ft | 2 kts | 314° |
| 2026-04-28 21:07 | 40.90202 | 9.51638 | 34 ft | 3 kts | 326° |
| 2026-04-28 21:07 | 40.90216 | 9.51625 | 34 ft | 2 kts | 325° |
| 2026-04-28 21:07 | 40.90224 | 9.51618 | 34 ft | 1 kts | 325° |
| 2026-04-28 21:08 | 40.90225 | 9.51617 | 34 ft | 0 kts | 325° |